• Join FlightAware (Why Join?)
  • Login
  • US Flag 
06:17PM EDT


 

Airport Tracker/Info


-or-


 

Live Flight TrackerFlight Track Log ✈ N244BM ✈ 27-Apr-2012 ✈ KMKG - KCLE

Flight Track Log - Related Links

Times and Time Zones

All times are in EDT time to prevent confusion due to time zone crossing. See the N244BM flight status page for this flight to view local times or setup timezone preferences in your user account.

Time Position Orientation Groundspeed Altitude Reporting Facility
EDT Latitude Longitude Course Direction KTS MPH feet Rate Location/Type
09:33AM 43.1331 -86.0639 119° Southeast 100 115 5,400  Level Chicago Center
09:34AM 43.1175 -86.0250 125° Southeast 107 123 6,000 540 Climbing Chicago Center
09:35AM 43.1019 -85.9944 123° Southeast 105 121 6,500 480 Climbing Chicago Center
09:36AM 43.0864 -85.9611 124° Southeast 105 121 7,000 480 Climbing Chicago Center
09:37AM 43.0686 -85.9253 124° Southeast 105 121 7,500 480 Climbing Chicago Center
09:38AM 43.0508 -85.8892 120° Southeast 110 127 8,000 420 Climbing Chicago Center
09:39AM 43.0331 -85.8475 123° Southeast 115 132 8,400 360 Climbing Chicago Center
09:40AM 43.0131 -85.8061 125° Southeast 120 138 8,800 300 Climbing Chicago Center
09:41AM 42.9931 -85.7675 122° Southeast 120 138 9,100 300 Climbing Chicago Center
09:42AM 42.9753 -85.7289 125° Southeast 120 138 9,400 300 Climbing Chicago Center
09:43AM 42.9553 -85.6903 119° Southeast 120 138 9,700 300 Climbing Chicago Center
09:44AM 42.9372 -85.6458 128° Southeast 120 138 10,000 300 Climbing Chicago Center
09:45AM 42.9150 -85.6075 121° Southeast 125 144 10,300 240 Climbing Chicago Center
09:46AM 42.8992 -85.5717 123° Southeast 125 144 10,500 180 Climbing Chicago Center
09:48AM 42.8622 -85.4928 128° Southeast 133 153 10,900 180 Climbing Cleveland Center
09:49AM 42.8369 -85.4483 123° Southeast 133 153 11,100 180 Climbing Cleveland Center
09:50AM 42.8158 -85.4042 121° Southeast 133 153 11,300 60 Climbing Cleveland Center
09:51AM 42.7947 -85.3572 126° Southeast 133 153 11,300  Level Cleveland Center
09:52AM 42.7697 -85.3100 122° Southeast 133 153 11,300  Level Cleveland Center
09:53AM 42.7486 -85.2633 126° Southeast 138 159 11,300  Level Cleveland Center
09:54AM 42.7233 -85.2161 120° Southeast 138 159 11,300  Level Cleveland Center
09:55AM 42.7044 -85.1722 122° Southeast 143 165 11,300  Level Cleveland Center
09:56AM 42.6814 -85.1225 128° Southeast 149 171 11,300  Level Cleveland Center
09:57AM 42.6558 -85.0783 120° Southeast 149 171 11,300  Level Cleveland Center
09:58AM 42.6350 -85.0289 126° Southeast 149 171 11,300  Level Cleveland Center
09:59AM 42.6097 -84.9819 123° Southeast 149 171 11,300  Level Cleveland Center
10:00AM 42.5864 -84.9322 124° Southeast 149 171 11,300  Level Cleveland Center
10:01AM 42.5633 -84.8856 121° Southeast 149 171 11,300  Level Cleveland Center
10:02AM 42.5400 -84.8333 124° Southeast 149 171 11,300  Level Cleveland Center
10:03AM 42.5169 -84.7867 123° Southeast 149 171 11,300  Level Cleveland Center
10:04AM 42.4936 -84.7372 128° Southeast 149 171 11,300  Level Cleveland Center
10:05AM 42.4681 -84.6933 120° Southeast 149 171 11,300  Level Cleveland Center
10:06AM 42.4469 -84.6439 125° Southeast 149 171 11,300  Level Cleveland Center
10:07AM 42.4214 -84.5944 124° Southeast 149 171 11,300  Level Cleveland Center
10:08AM 42.4000 -84.5508 124° Southeast 149 171 11,300  Level Cleveland Center
10:09AM 42.3767 -84.5044 123° Southeast 149 171 11,300  Level Cleveland Center
10:10AM 42.3533 -84.4553 125° Southeast 149 171 11,300  Level Cleveland Center
10:11AM 42.3297 -84.4089 124° Southeast 149 171 11,300  Level Cleveland Center
10:12AM 42.3064 -84.3625 124° Southeast 149 171 11,300  Level Cleveland Center
10:13AM 42.2847 -84.3192 124° Southeast 149 171 11,300  Level Cleveland Center
10:14AM 42.2614 -84.2728 125° Southeast 149 171 11,300  Level Cleveland Center
10:15AM 42.2378 -84.2267 124° Southeast 149 171 11,300  Level Cleveland Center
10:16AM 42.2142 -84.1803 123° Southeast 149 171 11,300  Level Cleveland Center
10:17AM 42.1908 -84.1314 125° Southeast 149 171 11,300  Level Cleveland Center
10:18AM 42.1611 -84.0736 124° Southeast 151 174 11,300  Level Cleveland Center
10:19AM 42.1436 -84.0392 124° Southeast 149 171 11,300  Level Cleveland Center
10:20AM 42.1181 -83.9872 127° Southeast 149 171 11,300  Level Cleveland Center
10:21AM 42.0942 -83.9442 124° Southeast 149 171 11,300  Level Cleveland Center
10:22AM 42.0686 -83.8922 124° Southeast 150 173 11,300  Level Cleveland Center
10:23AM 42.0431 -83.8406 126° Southeast 151 174 11,300  Level Cleveland Center
10:24AM 42.0172 -83.7919 124° Southeast 149 171 11,300  Level Cleveland Center
10:25AM 41.9917 -83.7403 124° Southeast 152 175 11,300  Level Cleveland Center
10:26AM 41.9697 -83.6972 123° Southeast 152 175 11,300  Level Cleveland Center
10:27AM 41.9461 -83.6486 124° Southeast 152 175 11,300  Level Cleveland Center
10:29AM 41.9203 -83.5972 127° Southeast 152 175 11,300  Level Cleveland Center
10:30AM 41.8944 -83.5514 122° Southeast 154 177 11,300  Level Cleveland Center
10:31AM 41.8708 -83.5000 126° Southeast 154 177 11,300  Level Cleveland Center
10:32AM 41.8408 -83.4456 123° Southeast 156 180 11,300  Level Cleveland Center
10:33AM 41.8189 -83.4000 133° Southeast 158 182 11,300  Level Cleveland Center
10:34AM 41.7867 -83.3542 139° Southeast 170 196 11,300  Level Cleveland Center
10:35AM 41.7544 -83.3167 139° Southeast 164 189 11,300  Level Cleveland Center
10:36AM 41.7219 -83.2789 137° Southeast 159 183 11,300  Level Cleveland Center
10:37AM 41.6894 -83.2386 139° Southeast 159 183 11,300  Level Cleveland Center
10:38AM 41.6569 -83.2011 133° Southeast 159 183 11,300  Level Cleveland Center
10:39AM 41.6247 -83.1556 137° Southeast 159 183 11,300  Level Cleveland Center
10:40AM 41.5922 -83.1153 133° Southeast 159 183 11,300  Level Cleveland Center
10:41AM 41.5639 -83.0753 102° East 159 183 11,300 -180 Level Cleveland Center
10:41AM 41.5583 -83.0392 91° East 151 174 11,000 -420 Descending Cleveland Center
10:43AM 41.5578 -82.9697 106° East 145 167 10,500 -420 Descending Cleveland Center
10:44AM 41.5464 -82.9164 109° East 145 167 10,100 -420 Descending Cleveland Center
10:45AM 41.5328 -82.8633 110° East 150 173 9,700 -420 Descending Cleveland Center
10:46AM 41.5192 -82.8128 116° Southeast 150 173 9,300 -480 Descending Cleveland Center
10:47AM 41.4975 -82.7539 101° East 146 168 8,700 -480 Descending Cleveland Center
10:48AM 41.4919 -82.7150 108° East 145 167 8,400 -480 Descending Cleveland Center
10:49AM 41.4783 -82.6589 109° East 145 167 7,900 -540 Descending Cleveland Center
10:50AM 41.4667 -82.6144 104° East 140 161 7,400 -540 Descending Cleveland Center
10:51AM 41.4572 -82.5642 116° Southeast 135 155 6,900 -480 Descending Cleveland Center
10:51AM 41.4492 -82.5417 99° East 133 153 6,700 -480 Descending Cleveland Center
10:52AM 41.4436 -82.4944 98° East 132 152 6,200 -480 Descending Cleveland Center
10:53AM 41.4383 -82.4417 95° East 125 144 5,700 -480 Descending Cleveland Center
10:54AM 41.4367 -82.4167 93° East 124 143 5,400 -660 Descending Cleveland Center
10:55AM 41.4353 -82.3750 82° East 114 131 4,700 -780 Descending Cleveland Center
10:56AM 41.4400 -82.3308 103° East 114 131 3,900 -600 Descending Cleveland Center
10:57AM 41.4325 -82.2864 102° East 111 128 3,500 -180 Descending Cleveland Center
10:58AM 41.4267 -82.2503 97° East 106 122 3,600  Climbing Cleveland Center
10:59AM 41.4231 -82.2114 93° East 105 121 3,600  Level Cleveland Center
11:00AM 41.4217 -82.1697 93° East 104 120 3,600  Level Cleveland Center
11:01AM 41.4200 -82.1311 93° East 102 117 3,600  Level Cleveland Center
11:02AM 41.4183 -82.0922 89° East 101 116 3,600  Level Cleveland Center
11:03AM 41.4189 -82.0561 92° East 98 113 3,600 -180 Level Cleveland Center
11:04AM 41.4175 -82.0119 93° East 107 123 3,300 -420 Descending Cleveland Center
11:05AM 41.4158 -81.9731 89° East 106 122 2,800 -600 Descending Cleveland Center
11:06AM 41.4164 -81.9317 85° East 110 127 2,100 -660 Descending Cleveland Center
11:07AM 41.4189 -81.8928 85° East 100 115 1,500 -600 Descending Cleveland Center